Terminal Aerodrome Forecast
Issued by NWS Boston, MA

Home | Current Version | Previous Version | Text Only | Print | Product List | Glossary On
Versions: 1 2 3 4 5 6 7 8 9 10 11 12 13 14 15 16 17 18 19 20 21 22 23
000
FTUS41 KBOX 230523
TAFPVD
TAF
KPVD 230523Z 2306/2406 21010KT P6SM FEW060 BKN120
     FM231000 19006KT 4SM BR SCT003 BKN035
     FM231300 19006KT P6SM BKN060
     FM232000 20014G24KT P6SM BKN050
     FM232300 21012G23KT P6SM BKN015=

USA.gov is the U.S. government's official web portal to all federal, state and local government web resources and services.